Destin, FL

1:23 PM CDT on May 29, 2015 (GMT -0500)
Destin Water Users | | Change Station
CLOSE
Current Station
Personal Weather Station
Location: Destin, FL
Elevation: 26 ft
Nearby Weather Stations

Elev 26 ft 30.39 °N, 86.48 °W | Updated 28 seconds ago

Mostly Cloudy
Mostly Cloudy
84.4 °F
Feels Like 91 °F
N
4.7
Wind Variable Wind from East
Gusts 7.0 mph

Today
High -- | Low -- °F
--% Chance of Precip.
Yesterday
High -- | Low -- °F
Precip. -- in
5:45 AM 7:41 PM
Waxing Gibbous, 85% visible
Pressure 30.12 in
Visibility 10.0 miles
Clouds Mostly Cloudy 7500 ft
Heat Index 91 °F
Dew Point 73 °F
Humidity 69%
Rainfall 0.00 in
Snow Depth Not available.
UV 7 out of 12
Pollen 4.40 out of 12
Air Quality Not available.
Flu Activity Sporadic
METAR KDTS 291753Z AUTO 17007KT 10SM BKN075 29/22 A3013 RMK AO2 SLP200 6//// T02890222 10294 20228 58006 TSNO

More Conditions Fewer Conditions

Pressure 30.12 in
Visibility 10.0 miles
Clouds Mostly Cloudy 7500 ft
Heat Index 91 °F
Dew Point 73 °F
Humidity 69%
Rainfall 0.00 in
Snow Depth Not available.
UV 7 out of 12
Pollen 4.40 out of 12
Air Quality Not available.
Flu Activity Sporadic
METAR KDTS 291753Z AUTO 17007KT 10SM BKN075 29/22 A3013 RMK AO2 SLP200 6//// T02890222 10294 20228 58006 TSNO

More Conditions Fewer Conditions

10-Day Weather Forecast

Almanac

Astronomy

May. 29, 2015 Rise Set
Actual Time
Civil Twilight
Nautical Twilight
Astronomical Twilight
Moon
Length of Visible Light
Length of Day
Tomorrow will be .
, % of the Moon is Illuminated

Today's Extremes

State Highs State Lows

Community

WunderPhotos

Upload Photos

1,825,321 photos uploaded!

WunderBlogs® & News

Nearby

Air Quality

  Air Quality AQ Index Pollutant
Not available.

Snow Depth

Station Depth Elevation

Earthquake Activity

City Distance Mag. Time & Date
Minimum magnitude displayed is 2.5.

Coastal Water Temperatures

Place Temperature

Stations

Nearby Weather Stations

Station Location Temp. Windchill Dew Point Humidity Wind Precip. Elev Updated Type